Portada
METAR-TAF:

METAR-TAF

Aeropuertos :

Aeropuerto de Lisboa

Lisboa, Portugal

latitud: 38-46N, longitud: 009-08W, altitud: 114 m

Observación

El informe se hizo hace 28 minutos, a las 07:00 UTC
Viento 5 kt del este-noreste
Temperatura 10°C
Humedad 87%
Presión 1026 hPa
Visibilidad 10 km o más
sin nubes por debajo de 1500 m y sin presencia de cumulonimbus.

METAR: LPPT 210700Z 06005KT CAVOK 10/08 Q1026

Hora: 07:28 (07:28 UTC)

Pronóstico

El informe se hizo hace 2 horas y 28 minutos, a las 05:00 UTC
Pronóstico válido del 21 a las 06 UTC al 22 a las 12 UTC
Viento 7 kt del noreste
Visibilidad 10 km o más
sin nubes por debajo de 1500 m y sin presencia de cumulonimbus.
Evolucionando progresivamente
del 21 a las 18 UTC al 21 a las 21 UTC
Viento 7 kt del norte
Evolucionando progresivamente
del 22 a las 00 UTC al 22 a las 03 UTC
Viento 7 kt del noreste

TAF: LPPT 210500Z 2106/2212 05007KT CAVOK BECMG 2118/2121 35007KT BECMG 2200/2203 04007KT

Observaciones y pronósticos meteorológicos de más de 4000 aeropuertos (mensajes METAR y TAF).

Los puntos amarillos y rojos representan las estaciones disponibles.

Ponga el ratón en el punto deseado para ver el nombre de la estación.

Haga clic para ver las observaciones y los pronósticos meteorológicos.

Para cambiar el mapa : haga clic en los botones verdes con una cruz de color negro para hacer un zoom, en el botón verde con un guión para alejar o en las flechas verdes para mapas adyacentes.


METAR-TAF: